NCAR-RAP Real-Time Weather Data

Output produced by METARs form (26 May 2022  08:54 UTC)
found at http://weather.rap.ucar.edu/surface/
 
KPHL 260754Z 09006KT 10SM BKN065 13/08 A3031 RMK AO2 SLP263 T01330083
KPHL 260654Z 07003KT 10SM BKN070 12/07 A3032 RMK AO2 SLP265 T01220072
KPHL 260554Z 09006KT 10SM BKN065 13/07 A3033 RMK AO2 SLP270 T01330067 10189 20133 58008
KPHL 260454Z 09005KT 10SM SCT070 13/06 A3035 RMK AO2 SLP275 T01330061 402500133
KPHL 260354Z 11006KT 10SM SCT075 14/05 A3035 RMK AO2 SLP276 T01440050
KPHL 260254Z 10007KT 10SM BKN075 16/04 A3036 RMK AO2 SLP278 T01610044 51007
KPHL 260154Z 10006KT 10SM SCT075 SCT250 17/04 A3035 RMK AO2 SLP278 T01670044
KPHL 260054Z 13006KT 10SM SCT070 BKN250 17/06 A3035 RMK AO2 SLP278 T01720056
KPHL 252354Z 12011KT 10SM SCT070 BKN250 19/08 A3034 RMK AO2 SLP272 T01890078 10250 20189 53006
KPHL 252254Z 14009KT 10SM SCT070 SCT250 21/08 A3032 RMK AO2 SLP268 T02110083
KPHL 252154Z 13009KT 10SM FEW060 SCT180 BKN250 23/09 A3031 RMK AO2 SLP263 T02280089
KPHL 252054Z 12010KT 10SM BKN200 24/09 A3032 RMK AO2 SLP265 T02390089 55009
KPHL 251954Z 14010KT 10SM SCT220 24/09 A3031 RMK AO2 SLP265 T02440089
KPHL 251854Z 09008KT 10SM FEW040 BKN080 BKN200 25/09 A3033 RMK AO2 SLP269 T02500094
KPHL 251754Z 09010KT 10SM FEW040 BKN080 24/09 A3034 RMK AO2 SLP274 T02440094 10244 20156 56013
KPHL 251654Z 06007KT 10SM FEW040 BKN080 23/09 A3036 RMK AO2 SLP279 T02280094
KPHL 251554Z 07008KT 10SM BKN080 BKN260 22/10 A3037 RMK AO2 SLP282 T02170100
KPHL 251454Z 06010KT 10SM BKN080 BKN260 19/09 A3038 RMK AO2 SLP287 T01940094 51004
KPHL 251354Z 05007KT 10SM BKN080 BKN260 18/10 A3038 RMK AO2 SLP287 T01830100 $
KPHL 251254Z 08007KT 10SM BKN080 BKN260 17/10 A3038 RMK AO2 SLP285 T01720100 $
KPHL 251154Z 05008KT 10SM SCT080 BKN260 16/10 A3037 RMK AO2 SLP283 T01560100 10156 20133 51020 $
KPHL 251054Z 05007KT 10SM SCT080 BKN260 14/09 A3036 RMK AO2 SLP280 T01390094 $
KPHL 250954Z 05007KT 10SM SCT070 BKN260 13/09 A3034 RMK AO2 SLP272 T01330094 $
KPHL 250854Z 07007KT 10SM FEW090 SCT250 13/09 A3031 RMK AO2 SLP263 T01330094 55003 $
KPHL 250754Z 06006KT 10SM CLR 13/09 A3031 RMK AO2 SLP262 T01330094 $
KPHL 250654Z 06005KT 10SM FEW090 14/09 A3030 RMK AO2 SLP260 T01390089 $
KPHL 250554Z 05004KT 10SM SCT090 14/09 A3032 RMK AO2 SLP266 T01440089 10189 20139 51002 $
KPHL 250454Z 07008KT 10SM BKN090 14/08 A3031 RMK AO2 SLP264 T01440083 402220144 $
KPHL 250354Z 09008KT 10SM BKN100 16/08 A3032 RMK AO2 SLP267 T01560078 $
KPHL 250254Z 07006KT 10SM BKN100 16/07 A3031 RMK AO2 SLP263 T01560067 $
KPHL 250154Z 09009KT 10SM BKN100 17/07 A3030 RMK AO2 SLP261 T01720067 $
KPHL 250054Z 11008KT 10SM BKN100 BKN250 18/08 A3029 RMK AO2 SLP257 T01780083 $
KPHL 250022Z 09008KT 10SM SCT100 BKN250 18/08 A3028 RMK AO2 T01830078 VISNO W $
KPHL 242354Z 08010KT 10SM SCT080 BKN250 19/08 A3028 RMK AO2 SLP253 T01890083 10222 20183 53008 $
KPHL 242254Z 08009KT 10SM SCT080 BKN250 20/08 A3027 RMK AO2 SLP250 T02000078 $
KPHL 242154Z 09008KT 10SM BKN080 22/08 A3025 RMK AO2 SLP244 T02170083 $
KPHL 242054Z 07006KT 10SM FEW060 BKN080 21/08 A3026 RMK AO2 SLP245 T02110083 56008 $
KPHL 241954Z 10012KT 10SM FEW045 OVC065 22/08 A3026 RMK AO2 SLP247 T02170083 $
KPHL 241854Z 11011KT 10SM FEW045 BKN060 OVC085 22/09 A3027 RMK AO2 SLP251 T02220089 $
KPHL 241754Z 10010KT 10SM FEW045 BKN065 OVC120 21/09 A3028 RMK AO2 SLP253 T02110089 10211 20172 50001 $
KPHL 241654Z 09010KT 10SM SCT040 BKN060 OVC120 21/09 A3028 RMK AO2 SLP253 T02060089 $
KPHL 241554Z 13010KT 10SM SCT035 BKN060 OVC120 20/09 A3028 RMK AO2 SLP254 T02000089 $
KPHL 241454Z 10011KT 10SM SCT035 BKN060 OVC120 20/10 A3028 RMK AO2 SLP252 T02000100 53010 $
KPHL 241354Z 10009KT 10SM BKN035 BKN065 OVC140 19/10 A3027 RMK AO2 SLP248 T01890100 $
KPHL 241254Z 08012KT 10SM FEW025 BKN070 OVC140 18/11 A3025 RMK AO2 SLP244 T01780111 $
KPHL 241154Z 08005KT 10SM BKN070 OVC140 17/12 A3025 RMK AO2 RAE02 SLP241 P0000 60000 T01720122 10178 20161 53009 $
KPHL 241054Z 09006KT 10SM -RA BKN065 OVC140 17/12 A3023 RMK AO2 RAB41 SLP237 P0000 T01670117 $
KPHL 240954Z 11007KT 10SM BKN080 OVC140 16/12 A3021 RMK AO2 SLP228 T01610117 $